createdAt,value
2023-05-10T00:02:10.920Z,3.70
2023-05-10T00:04:38.235Z,3.20
2023-05-10T00:07:05.151Z,3.20
2023-05-10T00:09:32.188Z,2.80
2023-05-10T00:11:59.654Z,3.30
2023-05-10T00:14:26.678Z,3.23
2023-05-10T00:16:55.828Z,3.57
2023-05-10T00:19:22.930Z,4.00
2023-05-10T00:21:50.192Z,3.23
2023-05-10T00:24:17.149Z,3.60
2023-05-10T00:26:44.272Z,2.90
2023-05-10T00:29:11.492Z,2.73
2023-05-10T00:31:38.496Z,2.80
2023-05-10T00:34:05.722Z,2.97
2023-05-10T00:36:33.089Z,3.47
2023-05-10T00:39:00.172Z,3.23
2023-05-10T00:41:27.171Z,3.53
2023-05-10T00:43:54.199Z,2.70
2023-05-10T00:46:21.765Z,2.77
2023-05-10T00:48:49.146Z,2.60
2023-05-10T00:51:16.159Z,2.80
2023-05-10T00:53:44.863Z,3.20
2023-05-10T00:56:12.146Z,3.30
2023-05-10T00:58:40.423Z,2.77
2023-05-10T01:01:08.905Z,2.90
2023-05-10T01:03:36.882Z,2.80
2023-05-10T01:06:06.251Z,2.77
2023-05-10T01:08:33.436Z,2.90
2023-05-10T01:11:00.695Z,2.80
2023-05-10T01:13:37.328Z,3.50
2023-05-10T01:16:06.003Z,2.60
2023-05-10T01:18:39.210Z,2.57
2023-05-10T01:21:15.470Z,2.53
2023-05-10T01:24:15.984Z,3.03
2023-05-10T01:27:00.137Z,2.73
2023-05-10T01:30:13.548Z,3.00
2023-05-10T01:33:08.276Z,2.90
2023-05-10T01:35:52.827Z,2.97
2023-05-10T01:38:43.160Z,2.67
2023-05-10T01:41:18.381Z,2.50
2023-05-10T01:44:08.418Z,2.77
2023-05-10T01:46:40.889Z,2.63
2023-05-10T01:49:21.096Z,2.80
2023-05-10T01:52:05.082Z,2.63
2023-05-10T01:54:34.932Z,2.40
2023-05-10T01:57:06.777Z,2.80
2023-05-10T01:59:42.517Z,2.80
2023-05-10T02:02:13.039Z,2.83
2023-05-10T02:04:42.270Z,3.27
2023-05-10T02:07:10.852Z,2.83
2023-05-10T02:09:38.338Z,3.30
2023-05-10T02:12:08.055Z,3.27
2023-05-10T02:14:37.349Z,5.03
2023-05-10T02:17:07.277Z,3.80
2023-05-10T02:19:35.713Z,3.57
2023-05-10T02:22:04.074Z,3.60
2023-05-10T02:24:33.361Z,3.77
2023-05-10T02:27:01.423Z,3.83
2023-05-10T02:29:29.766Z,3.23
2023-05-10T02:31:59.592Z,3.80
2023-05-10T02:34:28.368Z,3.80
2023-05-10T02:36:57.779Z,3.50
2023-05-10T02:39:26.418Z,3.37
2023-05-10T02:41:54.872Z,3.70
2023-05-10T02:44:24.757Z,3.73
2023-05-10T02:46:52.021Z,3.30
2023-05-10T02:49:19.662Z,3.47
2023-05-10T02:51:52.836Z,3.37
2023-05-10T02:54:22.088Z,3.57
2023-05-10T02:56:54.730Z,3.30
2023-05-10T02:59:21.718Z,3.83
2023-05-10T03:01:49.129Z,3.60
2023-05-10T03:04:16.304Z,3.40
2023-05-10T03:06:43.752Z,3.63
2023-05-10T03:09:13.632Z,3.50
2023-05-10T03:11:52.593Z,3.57
2023-05-10T03:14:38.311Z,3.53
2023-05-10T03:17:11.163Z,3.97
2023-05-10T03:19:47.858Z,4.70
2023-05-10T03:22:24.574Z,4.43
2023-05-10T03:24:55.904Z,4.20
2023-05-10T03:27:26.303Z,6.70
2023-05-10T03:29:56.235Z,4.67
2023-05-10T03:32:23.719Z,4.17
2023-05-10T03:34:51.010Z,4.67
2023-05-10T03:37:20.179Z,4.00
2023-05-10T03:39:47.269Z,3.97
2023-05-10T03:42:14.338Z,4.33
2023-05-10T03:44:41.392Z,3.50
2023-05-10T03:47:08.977Z,4.20
2023-05-10T03:49:36.353Z,5.03
2023-05-10T03:52:03.457Z,4.43
2023-05-10T03:54:30.450Z,4.83
2023-05-10T03:56:57.393Z,4.07
2023-05-10T03:59:24.402Z,4.70
2023-05-10T04:01:51.538Z,5.27
2023-05-10T04:04:19.975Z,8.53
2023-05-10T04:06:47.289Z,6.53
2023-05-10T04:09:14.805Z,7.43
2023-05-10T04:11:42.004Z,6.67
2023-05-10T04:14:09.262Z,7.23
2023-05-10T04:16:36.317Z,7.53
2023-05-10T04:19:04.031Z,7.20
2023-05-10T04:21:31.507Z,6.67
2023-05-10T04:23:58.498Z,7.63
2023-05-10T04:26:26.613Z,6.77
2023-05-10T04:28:53.868Z,5.57
2023-05-10T04:31:21.046Z,6.53
2023-05-10T04:33:48.082Z,6.40
2023-05-10T04:36:15.086Z,8.07
2023-05-10T04:38:42.483Z,6.87
2023-05-10T04:41:10.948Z,5.40
2023-05-10T04:43:39.012Z,6.60
2023-05-10T04:46:06.955Z,6.80
2023-05-10T04:48:34.550Z,4.80
2023-05-10T04:51:01.808Z,4.87
2023-05-10T04:53:28.865Z,5.53
2023-05-10T04:55:55.861Z,7.57
2023-05-10T04:58:23.521Z,5.73
2023-05-10T05:00:50.942Z,6.30
2023-05-10T05:03:17.976Z,7.13
2023-05-10T05:06:08.583Z,6.17
2023-05-10T05:08:35.614Z,6.07
2023-05-10T05:11:02.659Z,6.97
2023-05-10T05:13:29.741Z,7.20
2023-05-10T05:15:56.740Z,6.73
2023-05-10T05:18:23.879Z,7.77
2023-05-10T05:20:52.376Z,7.60
2023-05-10T05:23:21.622Z,10.80
2023-05-10T05:25:48.625Z,9.43
2023-05-10T05:28:15.829Z,12.30
2023-05-10T05:30:42.999Z,8.17
2023-05-10T05:33:10.910Z,9.07
2023-05-10T05:35:38.067Z,10.93
2023-05-10T05:38:05.129Z,9.00
2023-05-10T05:40:32.160Z,11.73
2023-05-10T05:42:59.179Z,12.10
2023-05-10T05:45:26.095Z,12.07
2023-05-10T05:47:53.127Z,11.30
2023-05-10T05:50:20.192Z,10.57
2023-05-10T05:52:47.155Z,23.63
2023-05-10T05:55:14.480Z,10.37
2023-05-10T05:57:41.693Z,17.10
2023-05-10T06:00:09.294Z,11.33
2023-05-10T06:02:36.375Z,11.43
2023-05-10T06:05:03.945Z,10.23
2023-05-10T06:07:30.908Z,11.00
2023-05-10T06:09:58.239Z,10.97
2023-05-10T06:12:25.313Z,10.00
2023-05-10T06:14:52.768Z,9.60
2023-05-10T06:17:19.691Z,9.53
2023-05-10T06:19:46.687Z,12.50
2023-05-10T06:22:13.898Z,8.20
2023-05-10T06:24:40.931Z,9.50
2023-05-10T06:27:08.123Z,7.90
2023-05-10T06:29:35.325Z,8.00
2023-05-10T06:32:02.537Z,9.67
2023-05-10T06:34:29.479Z,10.03
2023-05-10T06:36:56.521Z,11.57
2023-05-10T06:39:23.526Z,7.50
2023-05-10T06:41:50.693Z,11.50
2023-05-10T06:44:17.737Z,8.70
2023-05-10T06:46:44.790Z,7.73
2023-05-10T06:49:11.800Z,9.70
2023-05-10T06:51:38.828Z,8.37
2023-05-10T06:54:05.801Z,7.83
2023-05-10T06:56:32.797Z,7.77
2023-05-10T06:58:59.833Z,10.40
2023-05-10T07:01:26.930Z,9.67
2023-05-10T07:03:54.175Z,7.10
2023-05-10T07:06:29.789Z,7.83
2023-05-10T07:08:59.767Z,6.50
2023-05-10T07:11:27.021Z,7.47
2023-05-10T07:13:53.994Z,10.07
2023-05-10T07:16:22.513Z,10.83
2023-05-10T07:18:51.348Z,6.23
2023-05-10T07:21:18.612Z,8.37
2023-05-10T07:23:45.881Z,8.20
2023-05-10T07:26:12.897Z,6.67
2023-05-10T07:28:40.321Z,7.90
2023-05-10T07:31:07.317Z,9.83
2023-05-10T07:33:34.413Z,7.00
2023-05-10T07:36:01.431Z,10.50
2023-05-10T07:38:28.782Z,6.73
2023-05-10T07:40:55.828Z,6.13
2023-05-10T07:43:22.772Z,5.33
2023-05-10T07:45:49.840Z,5.93
2023-05-10T07:48:16.874Z,4.60
2023-05-10T07:50:43.932Z,5.90
2023-05-10T07:53:12.271Z,22.40
2023-05-10T07:55:39.560Z,5.27
2023-05-10T07:58:06.834Z,5.43
2023-05-10T08:00:33.886Z,5.33
2023-05-10T08:03:01.009Z,5.03
2023-05-10T08:05:28.107Z,5.93
2023-05-10T08:07:56.096Z,4.37
2023-05-10T08:10:23.121Z,4.33
2023-05-10T08:12:50.306Z,2.93
2023-05-10T08:15:18.447Z,5.20
2023-05-10T08:17:45.973Z,3.50
2023-05-10T08:20:14.011Z,3.53
2023-05-10T08:22:41.029Z,3.33
2023-05-10T08:25:08.401Z,2.73
2023-05-10T08:27:35.555Z,2.20
2023-05-10T08:30:02.769Z,3.13
2023-05-10T08:32:30.057Z,1.90
2023-05-10T08:34:57.299Z,2.60
2023-05-10T08:37:31.994Z,3.30
2023-05-10T08:39:59.111Z,2.97
2023-05-10T08:42:31.298Z,3.77
2023-05-10T08:45:00.109Z,2.10
2023-05-10T08:47:27.558Z,3.33
2023-05-10T08:49:55.836Z,2.53
2023-05-10T08:52:26.248Z,2.20
2023-05-10T08:54:53.780Z,2.17
2023-05-10T08:57:21.381Z,2.57
2023-05-10T08:59:48.680Z,2.03
2023-05-10T09:02:18.589Z,2.17
2023-05-10T09:04:45.969Z,2.93
2023-05-10T09:07:13.523Z,2.10
2023-05-10T09:09:40.682Z,1.87
2023-05-10T09:12:11.866Z,1.50
2023-05-10T09:14:39.297Z,2.53
2023-05-10T09:17:06.500Z,1.67
2023-05-10T09:19:34.849Z,2.40
2023-05-10T09:22:03.402Z,1.30
2023-05-10T09:24:31.418Z,1.40
2023-05-10T09:26:59.419Z,1.93
2023-05-10T09:29:26.699Z,1.73
2023-05-10T09:31:55.850Z,2.20
2023-05-10T09:34:34.265Z,2.75
2023-05-10T09:37:03.613Z,1.38
2023-05-10T16:19:35.427Z,6.43
2023-05-10T16:22:02.565Z,5.87
2023-05-10T16:24:30.167Z,6.00
2023-05-10T16:26:57.381Z,6.03
2023-05-10T16:29:26.876Z,7.00
2023-05-10T16:31:54.085Z,5.37
2023-05-10T16:34:24.207Z,7.70
2023-05-10T16:36:51.610Z,5.53
2023-05-10T16:39:18.621Z,6.17
2023-05-10T16:41:45.624Z,8.70
2023-05-10T16:44:12.590Z,7.27
2023-05-10T16:46:39.645Z,4.70
2023-05-10T16:49:06.770Z,7.17
2023-05-10T16:51:33.755Z,11.63
2023-05-10T16:54:01.363Z,12.50
2023-05-10T16:56:28.443Z,8.33
2023-05-10T16:58:55.341Z,6.07
2023-05-10T17:01:25.694Z,6.03
2023-05-10T17:03:53.940Z,5.03
2023-05-10T17:06:20.985Z,6.40
2023-05-10T17:08:47.955Z,6.33
2023-05-10T17:11:14.935Z,6.40
2023-05-10T17:13:41.964Z,7.10
2023-05-10T17:16:09.044Z,12.77
2023-05-10T17:18:36.567Z,7.43
2023-05-10T17:21:03.683Z,7.13
2023-05-10T17:23:31.935Z,6.60
2023-05-10T17:26:01.462Z,6.13
2023-05-10T17:28:28.696Z,7.93
2023-05-10T17:30:57.663Z,7.13
2023-05-10T17:33:24.912Z,6.57
2023-05-10T17:35:52.285Z,7.17
2023-05-10T17:38:19.277Z,8.17
2023-05-10T17:40:46.339Z,11.83
2023-05-10T17:43:13.370Z,7.47
2023-05-10T17:45:40.357Z,8.40
2023-05-10T17:48:07.984Z,5.37
2023-05-10T17:50:35.403Z,7.03
2023-05-10T17:53:03.001Z,5.80
2023-05-10T17:55:33.801Z,8.50
2023-05-10T17:58:00.951Z,6.10
2023-05-10T18:00:27.923Z,8.10
2023-05-10T18:02:54.901Z,7.63
2023-05-10T18:05:22.278Z,8.47
2023-05-10T18:07:49.784Z,8.30
2023-05-10T18:10:17.982Z,10.67
2023-05-10T18:12:46.630Z,9.03
2023-05-10T18:15:13.899Z,9.07
2023-05-10T18:17:40.906Z,10.63
2023-05-10T18:20:08.846Z,10.77
2023-05-10T18:22:36.123Z,10.00
2023-05-10T18:25:18.091Z,8.23
2023-05-10T18:27:45.331Z,9.80
2023-05-10T18:30:13.064Z,6.33
2023-05-10T18:32:40.057Z,7.47
2023-05-10T18:35:08.300Z,11.07
2023-05-10T18:37:36.274Z,10.93
2023-05-10T18:40:05.203Z,9.60
2023-05-10T18:42:32.401Z,10.43
2023-05-10T18:44:59.406Z,8.80
2023-05-10T18:47:26.972Z,9.20
2023-05-10T18:49:54.151Z,11.97
2023-05-10T18:52:21.587Z,10.73
2023-05-10T18:54:49.587Z,11.10
2023-05-10T18:57:16.681Z,9.87
2023-05-10T18:59:43.687Z,9.00
2023-05-10T19:02:10.911Z,9.80
2023-05-10T19:04:38.046Z,11.73
2023-05-10T19:07:05.189Z,12.47
2023-05-10T19:09:32.262Z,7.03
2023-05-10T19:12:00.289Z,7.97
2023-05-10T19:14:27.633Z,10.90
2023-05-10T19:16:55.040Z,7.40
2023-05-10T19:19:22.904Z,7.47
2023-05-10T19:21:50.020Z,5.60
2023-05-10T19:24:18.232Z,5.70
2023-05-10T19:26:52.243Z,6.20
2023-05-10T19:29:19.352Z,9.80
2023-05-10T19:31:47.154Z,10.33
2023-05-10T19:34:14.498Z,10.90
2023-05-10T19:36:41.674Z,7.60
2023-05-10T19:39:08.981Z,11.10
2023-05-10T19:41:36.187Z,8.20
2023-05-10T19:44:04.281Z,9.27
2023-05-10T19:46:31.672Z,8.23
2023-05-10T19:48:58.880Z,8.60
2023-05-10T19:51:25.925Z,6.33
2023-05-10T19:53:53.143Z,6.37
2023-05-10T19:56:20.168Z,10.80
2023-05-10T19:58:47.121Z,8.57
2023-05-10T20:01:14.432Z,10.30
2023-05-10T20:03:41.683Z,9.23
2023-05-10T20:06:08.677Z,9.03
2023-05-10T20:08:35.694Z,9.07
2023-05-10T20:11:03.980Z,9.37
2023-05-10T20:13:31.306Z,8.40
2023-05-10T20:16:00.053Z,8.43
2023-05-10T20:18:27.271Z,9.27
2023-05-10T20:23:40.520Z,8.17
2023-05-10T20:26:07.571Z,7.13
2023-05-10T20:28:34.623Z,8.53
2023-05-10T20:31:02.017Z,9.43
2023-05-10T20:33:29.266Z,13.83
2023-05-10T20:35:58.626Z,9.70
2023-05-10T20:38:25.797Z,10.50
2023-05-10T20:40:53.010Z,7.83
2023-05-10T20:43:21.479Z,8.70
2023-05-10T20:45:49.025Z,11.10
2023-05-10T20:48:16.865Z,10.43
2023-05-10T20:50:43.843Z,10.93
2023-05-10T20:53:11.111Z,10.10
2023-05-10T20:55:39.556Z,11.07
2023-05-10T20:58:06.559Z,9.70
2023-05-10T21:00:33.546Z,6.50
2023-05-10T21:03:00.524Z,10.83
2023-05-10T21:05:27.881Z,9.80
2023-05-10T21:07:55.072Z,8.33
2023-05-10T21:10:22.239Z,11.60
2023-05-10T21:12:51.103Z,9.97
2023-05-10T21:15:18.043Z,12.20
2023-05-10T21:17:47.922Z,13.73
2023-05-10T21:20:15.243Z,7.97
2023-05-10T21:22:42.661Z,8.83
2023-05-10T21:25:09.998Z,11.17
2023-05-10T21:27:37.229Z,13.43
2023-05-10T21:30:04.907Z,9.90
2023-05-10T21:32:31.973Z,11.13
2023-05-10T21:34:59.220Z,8.30
2023-05-10T21:37:26.240Z,10.70
2023-05-10T21:39:53.439Z,10.93
2023-05-10T21:42:20.447Z,8.67
2023-05-10T21:44:47.537Z,7.50
2023-05-10T21:47:14.520Z,9.90
2023-05-10T21:49:41.443Z,9.43
2023-05-10T21:52:08.525Z,8.33
2023-05-10T21:54:37.259Z,10.80
2023-05-10T21:57:04.275Z,6.67
2023-05-10T21:59:31.291Z,5.63
2023-05-10T22:01:58.573Z,6.43
2023-05-10T22:04:25.554Z,11.23
2023-05-10T22:06:52.635Z,9.70
2023-05-10T22:09:25.473Z,8.70
2023-05-10T22:11:52.508Z,10.80
2023-05-10T22:14:19.622Z,9.77
2023-05-10T22:16:46.686Z,5.90
2023-05-10T22:19:13.725Z,6.53
2023-05-10T22:21:41.461Z,8.03
2023-05-10T22:24:08.702Z,10.10
2023-05-10T22:26:35.672Z,6.47
2023-05-10T22:29:03.266Z,7.63
2023-05-10T22:31:30.317Z,7.83
2023-05-10T22:33:57.380Z,6.70
2023-05-10T22:36:24.411Z,8.67
2023-05-10T22:38:51.422Z,13.80
2023-05-10T22:41:18.470Z,9.57
2023-05-10T22:43:45.802Z,6.30
2023-05-10T22:46:13.145Z,9.03
2023-05-10T22:48:40.812Z,6.40
2023-05-10T22:51:07.802Z,15.17
2023-05-10T22:53:35.066Z,7.87
2023-05-10T22:56:02.543Z,10.57
2023-05-10T22:58:29.567Z,8.43
2023-05-10T23:00:56.576Z,7.07
2023-05-10T23:03:24.489Z,7.13
2023-05-10T23:05:52.030Z,6.80
2023-05-10T23:08:19.202Z,6.77
2023-05-10T23:10:48.789Z,8.47
2023-05-10T23:13:15.998Z,8.03
2023-05-10T23:15:43.634Z,10.87
2023-05-10T23:18:10.899Z,11.17
2023-05-10T23:20:38.118Z,8.30
2023-05-10T23:23:06.345Z,8.70
2023-05-10T23:25:33.297Z,6.20
2023-05-10T23:28:00.306Z,8.73
2023-05-10T23:30:27.514Z,6.27
2023-05-10T23:32:54.735Z,7.77
2023-05-10T23:35:21.795Z,7.43
2023-05-10T23:37:49.845Z,10.00
2023-05-10T23:40:17.211Z,8.93
2023-05-10T23:42:44.570Z,9.10
2023-05-10T23:45:11.877Z,6.67
2023-05-10T23:47:38.847Z,8.93
2023-05-10T23:50:06.559Z,10.10
2023-05-10T23:52:33.632Z,7.90
2023-05-10T23:55:00.608Z,6.33
2023-05-10T23:57:27.671Z,6.47
2023-05-10T23:59:54.967Z,7.10
